Bookmark and Share
Track history (hours):
 

Voyager

Last reported at 2014-Apr-16 16:22 UTC. Time now 2014-Apr-18 05:30 UTC.
Position N 37°39' E 023°42'.

Length 151 m; draft 6 m.

Type: Passenger vessel. MMSI: 309695000.

NotesDate/timePositionNaut miles runAvg speedWind from/ knotsBaromVisibWave heightAir tempDewpointWater temp
2014-Apr-16 16:22N 37°39' E 023°42'7 8.7
2014-Apr-16 15:33N 37°46' E 023°39'9 8.7
2014-Apr-16 14:34N 37°54' E 023°36'3 2.5
2014-Apr-16 13:32N 37°56' E 023°38'0 0.0
2014-Apr-16 12:32N 37°56' E 023°38'0 0.0
2014-Apr-16 11:32N 37°56' E 023°38'0 0.0
2014-Apr-16 10:32N 37°56' E 023°38'0 0.0
2014-Apr-16 09:32N 37°56' E 023°38'0 0.0
2014-Apr-16 08:32N 37°56' E 023°38'0 0.0
2014-Apr-16 07:32N 37°56' E 023°38'0 0.0
2014-Apr-16 06:26N 37°56' E 023°38'0 0.0
2014-Apr-16 05:32N 37°56' E 023°38'0 0.0
2014-Apr-16 04:23N 37°56' E 023°38'1 1.6
2014-Apr-16 03:33N 37°55' E 023°37'1312.8
2014-Apr-16 02:33N 37°44' E 023°44'1913.1
2014-Apr-16 01:04N 37°25' E 023°52'612.6
2014-Apr-16 00:33N 37°19' E 023°54'1010.0
2014-Apr-15 23:33N 37°10' E 023°58'1210.5
2014-Apr-15 22:24N 36°58' E 024°03'1313.8
2014-Apr-15 21:30N 36°46' E 024°08'1313.9
2014-Apr-15 20:33N 36°35' E 024°15'1514.2
2014-Apr-15 19:32N 36°22' E 024°24'1414.1
2014-Apr-15 18:33N 36°10' E 024°33'1414.3
2014-Apr-15 17:33N 35°58' E 024°42'1414.4
2014-Apr-15 16:33N 35°46' E 024°52'1414.3
2014-Apr-15 15:33N 35°34' E 025°01'  

Dump ship's entire track history

sailing weather and tide predictions

Voyager — C6WC2 — position and weather